sensor_id;sensor_type;location;lat;lon;timestamp;P1;durP1;ratioP1;P2;durP2;ratioP2
8058;SDS011;4072;42.668;23.396;2022-07-22T00:01:53;4.50;;;3.80;;
8058;SDS011;4072;42.668;23.396;2022-07-22T00:04:20;5.77;;;3.97;;
8058;SDS011;4072;42.668;23.396;2022-07-22T00:06:50;7.07;;;4.27;;
8058;SDS011;4072;42.668;23.396;2022-07-22T00:09:18;8.27;;;4.97;;
8058;SDS011;4072;42.668;23.396;2022-07-22T00:11:46;8.97;;;6.30;;
8058;SDS011;4072;42.668;23.396;2022-07-22T00:14:14;7.10;;;5.53;;
8058;SDS011;4072;42.668;23.396;2022-07-22T00:16:43;6.17;;;5.57;;
8058;SDS011;4072;42.668;23.396;2022-07-22T00:19:10;9.80;;;7.03;;
8058;SDS011;4072;42.668;23.396;2022-07-22T00:21:39;12.10;;;9.50;;
8058;SDS011;4072;42.668;23.396;2022-07-22T00:24:09;8.37;;;5.43;;
8058;SDS011;4072;42.668;23.396;2022-07-22T00:26:38;5.97;;;4.73;;
8058;SDS011;4072;42.668;23.396;2022-07-22T00:29:06;8.57;;;5.10;;
8058;SDS011;4072;42.668;23.396;2022-07-22T00:31:34;8.37;;;5.43;;
8058;SDS011;4072;42.668;23.396;2022-07-22T00:34:02;19.57;;;12.80;;
8058;SDS011;4072;42.668;23.396;2022-07-22T00:36:31;36.73;;;25.70;;
8058;SDS011;4072;42.668;23.396;2022-07-22T00:38:58;42.03;;;29.33;;
8058;SDS011;4072;42.668;23.396;2022-07-22T00:41:28;25.40;;;20.27;;
8058;SDS011;4072;42.668;23.396;2022-07-22T00:43:57;20.37;;;14.90;;
8058;SDS011;4072;42.668;23.396;2022-07-22T00:46:26;21.93;;;13.70;;
8058;SDS011;4072;42.668;23.396;2022-07-22T00:48:54;12.13;;;8.60;;
8058;SDS011;4072;42.668;23.396;2022-07-22T00:51:24;12.60;;;7.33;;
8058;SDS011;4072;42.668;23.396;2022-07-22T00:53:53;9.83;;;7.47;;
8058;SDS011;4072;42.668;23.396;2022-07-22T00:56:23;14.87;;;8.60;;
8058;SDS011;4072;42.668;23.396;2022-07-22T00:58:54;7.00;;;6.30;;
8058;SDS011;4072;42.668;23.396;2022-07-22T01:01:23;12.90;;;7.00;;
8058;SDS011;4072;42.668;23.396;2022-07-22T01:03:52;6.73;;;5.57;;
8058;SDS011;4072;42.668;23.396;2022-07-22T01:06:26;7.30;;;6.20;;
8058;SDS011;4072;42.668;23.396;2022-07-22T01:08:54;11.40;;;5.37;;
8058;SDS011;4072;42.668;23.396;2022-07-22T01:11:23;7.70;;;5.27;;
8058;SDS011;4072;42.668;23.396;2022-07-22T01:13:51;8.63;;;4.63;;
8058;SDS011;4072;42.668;23.396;2022-07-22T01:16:21;7.13;;;4.73;;
8058;SDS011;4072;42.668;23.396;2022-07-22T01:18:50;5.87;;;4.70;;
8058;SDS011;4072;42.668;23.396;2022-07-22T01:21:21;7.57;;;5.07;;
8058;SDS011;4072;42.668;23.396;2022-07-22T01:23:49;8.20;;;5.40;;
8058;SDS011;4072;42.668;23.396;2022-07-22T01:26:17;8.70;;;4.80;;
8058;SDS011;4072;42.668;23.396;2022-07-22T01:28:45;8.00;;;4.73;;
8058;SDS011;4072;42.668;23.396;2022-07-22T01:31:13;5.33;;;4.83;;
8058;SDS011;4072;42.668;23.396;2022-07-22T01:33:41;7.07;;;4.17;;
8058;SDS011;4072;42.668;23.396;2022-07-22T01:36:09;5.60;;;4.07;;
8058;SDS011;4072;42.668;23.396;2022-07-22T01:38:39;6.77;;;4.33;;
8058;SDS011;4072;42.668;23.396;2022-07-22T01:41:08;5.43;;;4.70;;
8058;SDS011;4072;42.668;23.396;2022-07-22T01:43:38;5.23;;;4.50;;
8058;SDS011;4072;42.668;23.396;2022-07-22T01:46:06;4.53;;;4.13;;
8058;SDS011;4072;42.668;23.396;2022-07-22T01:48:34;8.43;;;6.17;;
8058;SDS011;4072;42.668;23.396;2022-07-22T01:51:03;5.93;;;4.37;;
8058;SDS011;4072;42.668;23.396;2022-07-22T01:53:31;10.10;;;6.30;;
8058;SDS011;4072;42.668;23.396;2022-07-22T01:56:00;9.57;;;6.30;;
8058;SDS011;4072;42.668;23.396;2022-07-22T01:58:28;11.80;;;6.93;;
8058;SDS011;4072;42.668;23.396;2022-07-22T02:01:03;8.67;;;6.03;;
8058;SDS011;4072;42.668;23.396;2022-07-22T02:03:34;8.20;;;7.43;;
8058;SDS011;4072;42.668;23.396;2022-07-22T02:06:02;8.90;;;7.10;;
8058;SDS011;4072;42.668;23.396;2022-07-22T02:08:30;8.03;;;6.33;;
8058;SDS011;4072;42.668;23.396;2022-07-22T02:10:58;7.57;;;6.43;;
8058;SDS011;4072;42.668;23.396;2022-07-22T02:13:29;14.77;;;6.43;;
8058;SDS011;4072;42.668;23.396;2022-07-22T02:15:57;10.93;;;6.33;;
8058;SDS011;4072;42.668;23.396;2022-07-22T02:18:25;9.07;;;6.13;;
8058;SDS011;4072;42.668;23.396;2022-07-22T02:20:53;8.67;;;6.20;;
8058;SDS011;4072;42.668;23.396;2022-07-22T02:23:21;9.03;;;5.97;;
8058;SDS011;4072;42.668;23.396;2022-07-22T02:25:52;8.47;;;6.40;;
8058;SDS011;4072;42.668;23.396;2022-07-22T02:28:19;6.37;;;5.63;;
8058;SDS011;4072;42.668;23.396;2022-07-22T02:30:49;7.40;;;5.60;;
8058;SDS011;4072;42.668;23.396;2022-07-22T02:33:17;11.43;;;6.17;;
8058;SDS011;4072;42.668;23.396;2022-07-22T02:35:45;10.97;;;6.20;;
8058;SDS011;4072;42.668;23.396;2022-07-22T02:38:13;7.50;;;5.70;;
8058;SDS011;4072;42.668;23.396;2022-07-22T02:40:41;10.83;;;5.53;;
8058;SDS011;4072;42.668;23.396;2022-07-22T02:43:10;6.17;;;4.97;;
8058;SDS011;4072;42.668;23.396;2022-07-22T02:45:38;7.17;;;5.97;;
8058;SDS011;4072;42.668;23.396;2022-07-22T02:48:08;7.93;;;5.40;;
8058;SDS011;4072;42.668;23.396;2022-07-22T02:50:35;9.43;;;5.13;;
8058;SDS011;4072;42.668;23.396;2022-07-22T02:53:05;8.13;;;5.50;;
8058;SDS011;4072;42.668;23.396;2022-07-22T02:55:33;5.67;;;5.17;;
8058;SDS011;4072;42.668;23.396;2022-07-22T02:58:03;6.30;;;4.90;;
8058;SDS011;4072;42.668;23.396;2022-07-22T03:00:31;5.83;;;5.33;;
8058;SDS011;4072;42.668;23.396;2022-07-22T03:02:59;7.63;;;5.17;;
8058;SDS011;4072;42.668;23.396;2022-07-22T03:05:28;5.27;;;4.63;;
8058;SDS011;4072;42.668;23.396;2022-07-22T03:07:56;6.67;;;5.17;;
8058;SDS011;4072;42.668;23.396;2022-07-22T03:10:24;8.07;;;5.27;;
8058;SDS011;4072;42.668;23.396;2022-07-22T03:12:52;6.80;;;5.00;;
8058;SDS011;4072;42.668;23.396;2022-07-22T03:15:20;5.57;;;5.07;;
8058;SDS011;4072;42.668;23.396;2022-07-22T03:17:48;5.93;;;5.30;;
8058;SDS011;4072;42.668;23.396;2022-07-22T03:20:17;5.90;;;5.30;;
8058;SDS011;4072;42.668;23.396;2022-07-22T03:22:53;6.97;;;5.40;;
8058;SDS011;4072;42.668;23.396;2022-07-22T03:25:21;9.53;;;5.30;;
8058;SDS011;4072;42.668;23.396;2022-07-22T03:27:49;7.53;;;6.03;;
8058;SDS011;4072;42.668;23.396;2022-07-22T03:30:17;6.37;;;5.57;;
8058;SDS011;4072;42.668;23.396;2022-07-22T03:32:47;5.70;;;5.20;;
8058;SDS011;4072;42.668;23.396;2022-07-22T03:35:17;9.53;;;5.03;;
8058;SDS011;4072;42.668;23.396;2022-07-22T03:37:45;5.63;;;4.67;;
8058;SDS011;4072;42.668;23.396;2022-07-22T03:40:14;8.07;;;5.03;;
8058;SDS011;4072;42.668;23.396;2022-07-22T03:42:42;8.33;;;5.20;;
8058;SDS011;4072;42.668;23.396;2022-07-22T03:45:12;7.53;;;5.30;;
8058;SDS011;4072;42.668;23.396;2022-07-22T03:47:40;6.30;;;4.87;;
8058;SDS011;4072;42.668;23.396;2022-07-22T03:50:08;5.27;;;4.77;;
8058;SDS011;4072;42.668;23.396;2022-07-22T03:52:36;5.97;;;4.47;;
8058;SDS011;4072;42.668;23.396;2022-07-22T03:55:04;7.40;;;4.87;;
8058;SDS011;4072;42.668;23.396;2022-07-22T03:57:34;6.17;;;4.80;;
8058;SDS011;4072;42.668;23.396;2022-07-22T04:00:02;5.80;;;5.13;;
8058;SDS011;4072;42.668;23.396;2022-07-22T04:02:30;7.27;;;5.07;;
8058;SDS011;4072;42.668;23.396;2022-07-22T04:04:58;8.93;;;5.77;;
8058;SDS011;4072;42.668;23.396;2022-07-22T04:07:26;6.30;;;4.90;;
8058;SDS011;4072;42.668;23.396;2022-07-22T04:09:54;6.30;;;5.30;;
8058;SDS011;4072;42.668;23.396;2022-07-22T04:12:34;9.03;;;4.90;;
8058;SDS011;4072;42.668;23.396;2022-07-22T04:15:02;9.80;;;6.03;;
8058;SDS011;4072;42.668;23.396;2022-07-22T04:17:30;10.47;;;5.77;;
8058;SDS011;4072;42.668;23.396;2022-07-22T04:19:58;6.90;;;6.20;;
8058;SDS011;4072;42.668;23.396;2022-07-22T04:22:27;7.50;;;6.23;;
8058;SDS011;4072;42.668;23.396;2022-07-22T04:24:55;6.63;;;5.93;;
8058;SDS011;4072;42.668;23.396;2022-07-22T04:27:23;9.77;;;6.77;;
8058;SDS011;4072;42.668;23.396;2022-07-22T04:29:53;10.63;;;7.13;;
8058;SDS011;4072;42.668;23.396;2022-07-22T04:32:21;11.10;;;6.67;;
8058;SDS011;4072;42.668;23.396;2022-07-22T04:34:49;9.63;;;7.13;;
8058;SDS011;4072;42.668;23.396;2022-07-22T04:37:17;11.83;;;7.90;;
8058;SDS011;4072;42.668;23.396;2022-07-22T04:39:45;16.37;;;8.83;;
8058;SDS011;4072;42.668;23.396;2022-07-22T04:42:13;15.33;;;10.70;;
8058;SDS011;4072;42.668;23.396;2022-07-22T04:44:41;16.50;;;11.03;;
8058;SDS011;4072;42.668;23.396;2022-07-22T04:47:12;17.60;;;12.97;;
8058;SDS011;4072;42.668;23.396;2022-07-22T04:49:40;17.97;;;11.57;;
8058;SDS011;4072;42.668;23.396;2022-07-22T04:52:08;22.27;;;16.08;;
8058;SDS011;4072;42.668;23.396;2022-07-22T04:54:37;25.38;;;15.60;;
8058;SDS011;4072;42.668;23.396;2022-07-22T04:57:05;26.33;;;17.20;;
8058;SDS011;4072;42.668;23.396;2022-07-22T04:59:33;32.67;;;18.27;;
8058;SDS011;4072;42.668;23.396;2022-07-22T05:02:01;34.25;;;21.67;;
8058;SDS011;4072;42.668;23.396;2022-07-22T05:04:31;29.48;;;21.17;;
8058;SDS011;4072;42.668;23.396;2022-07-22T05:07:01;31.33;;;18.48;;
8058;SDS011;4072;42.668;23.396;2022-07-22T05:09:30;20.52;;;14.80;;
8058;SDS011;4072;42.668;23.396;2022-07-22T05:11:58;11.98;;;8.20;;
8058;SDS011;4072;42.668;23.396;2022-07-22T05:14:26;17.42;;;11.23;;
8058;SDS011;4072;42.668;23.396;2022-07-22T05:16:54;12.63;;;8.82;;
8058;SDS011;4072;42.668;23.396;2022-07-22T05:19:22;11.00;;;8.25;;
8058;SDS011;4072;42.668;23.396;2022-07-22T05:21:51;10.10;;;6.47;;
8058;SDS011;4072;42.668;23.396;2022-07-22T05:24:20;10.75;;;6.47;;
8058;SDS011;4072;42.668;23.396;2022-07-22T05:26:48;10.70;;;7.05;;
8058;SDS011;4072;42.668;23.396;2022-07-22T05:29:16;11.50;;;7.20;;
8058;SDS011;4072;42.668;23.396;2022-07-22T05:31:43;12.90;;;7.20;;
8058;SDS011;4072;42.668;23.396;2022-07-22T05:34:11;8.93;;;6.75;;
8058;SDS011;4072;42.668;23.396;2022-07-22T05:36:39;11.20;;;6.65;;
8058;SDS011;4072;42.668;23.396;2022-07-22T05:39:09;10.18;;;6.80;;
8058;SDS011;4072;42.668;23.396;2022-07-22T05:41:37;9.65;;;7.03;;
8058;SDS011;4072;42.668;23.396;2022-07-22T05:44:05;9.65;;;7.20;;
8058;SDS011;4072;42.668;23.396;2022-07-22T05:46:35;9.45;;;7.32;;
8058;SDS011;4072;42.668;23.396;2022-07-22T05:49:03;10.05;;;7.90;;
8058;SDS011;4072;42.668;23.396;2022-07-22T05:51:31;9.70;;;7.10;;
8058;SDS011;4072;42.668;23.396;2022-07-22T05:54:00;9.45;;;8.13;;
8058;SDS011;4072;42.668;23.396;2022-07-22T05:56:31;15.32;;;7.97;;
8058;SDS011;4072;42.668;23.396;2022-07-22T05:58:59;12.27;;;8.15;;
8058;SDS011;4072;42.668;23.396;2022-07-22T06:01:27;11.45;;;9.13;;
8058;SDS011;4072;42.668;23.396;2022-07-22T06:03:55;17.25;;;11.57;;
8058;SDS011;4072;42.668;23.396;2022-07-22T06:06:23;14.30;;;8.70;;
8058;SDS011;4072;42.668;23.396;2022-07-22T06:08:51;14.05;;;8.25;;
8058;SDS011;4072;42.668;23.396;2022-07-22T06:11:20;13.00;;;9.23;;
8058;SDS011;4072;42.668;23.396;2022-07-22T06:13:50;11.35;;;8.93;;
8058;SDS011;4072;42.668;23.396;2022-07-22T06:16:19;16.77;;;9.02;;
8058;SDS011;4072;42.668;23.396;2022-07-22T06:18:47;9.35;;;8.15;;
8058;SDS011;4072;42.668;23.396;2022-07-22T06:21:15;17.25;;;9.85;;
8058;SDS011;4072;42.668;23.396;2022-07-22T06:23:43;12.05;;;8.70;;
8058;SDS011;4072;42.668;23.396;2022-07-22T06:26:11;12.48;;;8.55;;
8058;SDS011;4072;42.668;23.396;2022-07-22T06:28:39;17.27;;;9.02;;
8058;SDS011;4072;42.668;23.396;2022-07-22T06:31:08;12.35;;;9.38;;
8058;SDS011;4072;42.668;23.396;2022-07-22T06:33:37;11.23;;;9.38;;
8058;SDS011;4072;42.668;23.396;2022-07-22T06:36:06;15.93;;;9.35;;
8058;SDS011;4072;42.668;23.396;2022-07-22T06:38:33;9.55;;;8.38;;
8058;SDS011;4072;42.668;23.396;2022-07-22T06:41:07;9.18;;;7.47;;
8058;SDS011;4072;42.668;23.396;2022-07-22T06:43:35;12.23;;;7.63;;
8058;SDS011;4072;42.668;23.396;2022-07-22T06:46:03;11.80;;;7.60;;
8058;SDS011;4072;42.668;23.396;2022-07-22T06:48:33;19.15;;;7.28;;
8058;SDS011;4072;42.668;23.396;2022-07-22T06:51:01;8.25;;;6.93;;
8058;SDS011;4072;42.668;23.396;2022-07-22T06:53:30;11.85;;;6.78;;
8058;SDS011;4072;42.668;23.396;2022-07-22T06:55:58;11.65;;;7.57;;
8058;SDS011;4072;42.668;23.396;2022-07-22T06:58:32;10.48;;;6.88;;
8058;SDS011;4072;42.668;23.396;2022-07-22T07:00:59;10.48;;;7.28;;
8058;SDS011;4072;42.668;23.396;2022-07-22T07:03:28;13.77;;;6.80;;
8058;SDS011;4072;42.668;23.396;2022-07-22T07:06:02;8.65;;;6.07;;
8058;SDS011;4072;42.668;23.396;2022-07-22T07:08:31;8.70;;;6.85;;
8058;SDS011;4072;42.668;23.396;2022-07-22T07:10:59;8.90;;;6.97;;
8058;SDS011;4072;42.668;23.396;2022-07-22T07:13:27;9.32;;;5.90;;
8058;SDS011;4072;42.668;23.396;2022-07-22T07:15:56;9.90;;;6.20;;
8058;SDS011;4072;42.668;23.396;2022-07-22T07:18:24;8.73;;;6.22;;
8058;SDS011;4072;42.668;23.396;2022-07-22T07:20:52;8.70;;;6.35;;
8058;SDS011;4072;42.668;23.396;2022-07-22T07:23:22;11.23;;;6.38;;
8058;SDS011;4072;42.668;23.396;2022-07-22T07:25:50;11.60;;;7.50;;
8058;SDS011;4072;42.668;23.396;2022-07-22T07:28:19;7.07;;;5.60;;
8058;SDS011;4072;42.668;23.396;2022-07-22T07:30:47;10.57;;;5.57;;
8058;SDS011;4072;42.668;23.396;2022-07-22T07:33:16;11.15;;;6.32;;
8058;SDS011;4072;42.668;23.396;2022-07-22T07:35:44;6.40;;;4.85;;
8058;SDS011;4072;42.668;23.396;2022-07-22T07:38:12;8.00;;;5.43;;
8058;SDS011;4072;42.668;23.396;2022-07-22T07:40:41;11.75;;;5.13;;
8058;SDS011;4072;42.668;23.396;2022-07-22T07:43:09;6.90;;;5.28;;
8058;SDS011;4072;42.668;23.396;2022-07-22T07:45:37;8.93;;;6.18;;
8058;SDS011;4072;42.668;23.396;2022-07-22T07:48:06;8.43;;;5.15;;
8058;SDS011;4072;42.668;23.396;2022-07-22T07:50:34;6.00;;;5.18;;
8058;SDS011;4072;42.668;23.396;2022-07-22T07:53:02;7.03;;;5.05;;
8058;SDS011;4072;42.668;23.396;2022-07-22T07:55:30;6.90;;;5.70;;
8058;SDS011;4072;42.668;23.396;2022-07-22T07:58:00;9.80;;;5.25;;
8058;SDS011;4072;42.668;23.396;2022-07-22T08:00:28;8.15;;;6.47;;
8058;SDS011;4072;42.668;23.396;2022-07-22T08:02:59;8.45;;;5.85;;
8058;SDS011;4072;42.668;23.396;2022-07-22T08:05:27;12.32;;;5.57;;
8058;SDS011;4072;42.668;23.396;2022-07-22T08:07:56;7.07;;;4.90;;
8058;SDS011;4072;42.668;23.396;2022-07-22T08:10:24;10.35;;;5.97;;
8058;SDS011;4072;42.668;23.396;2022-07-22T08:13:14;9.60;;;5.13;;
8058;SDS011;4072;42.668;23.396;2022-07-22T08:15:43;7.90;;;4.40;;
8058;SDS011;4072;42.668;23.396;2022-07-22T08:18:12;5.97;;;4.65;;
8058;SDS011;4072;42.668;23.396;2022-07-22T08:20:40;7.70;;;5.28;;
8058;SDS011;4072;42.668;23.396;2022-07-22T08:23:09;7.53;;;5.13;;
8058;SDS011;4072;42.668;23.396;2022-07-22T08:25:37;12.60;;;6.10;;
8058;SDS011;4072;42.668;23.396;2022-07-22T08:28:06;11.00;;;8.13;;
8058;SDS011;4072;42.668;23.396;2022-07-22T08:30:35;6.00;;;5.40;;
8058;SDS011;4072;42.668;23.396;2022-07-22T08:33:03;10.95;;;5.63;;
8058;SDS011;4072;42.668;23.396;2022-07-22T08:35:31;8.15;;;5.82;;
8058;SDS011;4072;42.668;23.396;2022-07-22T08:37:59;7.95;;;4.25;;
8058;SDS011;4072;42.668;23.396;2022-07-22T08:40:27;6.57;;;4.38;;
8058;SDS011;4072;42.668;23.396;2022-07-22T08:42:55;6.13;;;4.65;;
8058;SDS011;4072;42.668;23.396;2022-07-22T08:45:24;4.72;;;4.32;;
8058;SDS011;4072;42.668;23.396;2022-07-22T08:47:54;8.27;;;5.82;;
8058;SDS011;4072;42.668;23.396;2022-07-22T08:50:23;7.00;;;4.43;;
8058;SDS011;4072;42.668;23.396;2022-07-22T08:52:52;14.98;;;8.18;;
8058;SDS011;4072;42.668;23.396;2022-07-22T08:55:20;7.90;;;4.50;;
8058;SDS011;4072;42.668;23.396;2022-07-22T08:57:50;7.70;;;5.13;;
8058;SDS011;4072;42.668;23.396;2022-07-22T09:00:20;10.88;;;4.70;;
8058;SDS011;4072;42.668;23.396;2022-07-22T09:02:48;7.85;;;5.22;;
8058;SDS011;4072;42.668;23.396;2022-07-22T09:05:18;6.50;;;4.43;;
8058;SDS011;4072;42.668;23.396;2022-07-22T09:08:06;5.00;;;4.30;;
8058;SDS011;4072;42.668;23.396;2022-07-22T09:10:35;7.95;;;4.28;;
8058;SDS011;4072;42.668;23.396;2022-07-22T09:13:04;8.05;;;4.53;;
8058;SDS011;4072;42.668;23.396;2022-07-22T09:15:33;4.78;;;4.22;;
8058;SDS011;4072;42.668;23.396;2022-07-22T09:18:03;5.07;;;4.57;;
8058;SDS011;4072;42.668;23.396;2022-07-22T09:20:34;3.55;;;3.25;;
8058;SDS011;4072;42.668;23.396;2022-07-22T09:23:08;5.07;;;3.60;;
8058;SDS011;4072;42.668;23.396;2022-07-22T09:25:37;6.65;;;3.80;;
8058;SDS011;4072;42.668;23.396;2022-07-22T09:28:12;5.07;;;3.70;;
8058;SDS011;4072;42.668;23.396;2022-07-22T09:30:46;5.72;;;4.05;;
8058;SDS011;4072;42.668;23.396;2022-07-22T09:33:16;5.25;;;4.05;;
8058;SDS011;4072;42.668;23.396;2022-07-22T09:35:46;5.68;;;4.90;;
8058;SDS011;4072;42.668;23.396;2022-07-22T09:38:16;5.75;;;4.60;;
8058;SDS011;4072;42.668;23.396;2022-07-22T09:40:45;7.15;;;4.72;;
8058;SDS011;4072;42.668;23.396;2022-07-22T09:43:14;5.90;;;3.97;;
8058;SDS011;4072;42.668;23.396;2022-07-22T09:45:44;7.32;;;4.93;;
8058;SDS011;4072;42.668;23.396;2022-07-22T09:48:12;7.47;;;4.65;;
8058;SDS011;4072;42.668;23.396;2022-07-22T09:50:40;4.75;;;4.07;;
8058;SDS011;4072;42.668;23.396;2022-07-22T09:53:10;7.43;;;4.38;;
8058;SDS011;4072;42.668;23.396;2022-07-22T09:55:38;5.60;;;4.13;;
8058;SDS011;4072;42.668;23.396;2022-07-22T09:58:06;8.00;;;4.57;;
8058;SDS011;4072;42.668;23.396;2022-07-22T10:00:35;5.85;;;4.75;;
8058;SDS011;4072;42.668;23.396;2022-07-22T10:03:04;4.40;;;4.00;;
8058;SDS011;4072;42.668;23.396;2022-07-22T10:05:34;5.25;;;4.43;;
8058;SDS011;4072;42.668;23.396;2022-07-22T10:08:04;6.80;;;4.72;;
8058;SDS011;4072;42.668;23.396;2022-07-22T10:10:34;5.32;;;4.80;;
8058;SDS011;4072;42.668;23.396;2022-07-22T10:13:03;5.15;;;4.65;;
8058;SDS011;4072;42.668;23.396;2022-07-22T10:15:32;6.03;;;4.15;;
8058;SDS011;4072;42.668;23.396;2022-07-22T10:18:02;7.40;;;4.10;;
8058;SDS011;4072;42.668;23.396;2022-07-22T10:20:33;5.53;;;4.20;;
8058;SDS011;4072;42.668;23.396;2022-07-22T10:23:02;5.32;;;4.65;;
8058;SDS011;4072;42.668;23.396;2022-07-22T10:25:49;4.55;;;3.95;;
8058;SDS011;4072;42.668;23.396;2022-07-22T10:28:21;6.93;;;4.40;;
8058;SDS011;4072;42.668;23.396;2022-07-22T10:30:50;6.45;;;4.82;;
8058;SDS011;4072;42.668;23.396;2022-07-22T10:33:18;7.80;;;4.45;;
8058;SDS011;4072;42.668;23.396;2022-07-22T10:35:54;6.10;;;4.40;;
8058;SDS011;4072;42.668;23.396;2022-07-22T10:38:22;6.20;;;4.43;;
8058;SDS011;4072;42.668;23.396;2022-07-22T10:40:52;4.90;;;4.40;;
8058;SDS011;4072;42.668;23.396;2022-07-22T10:43:22;5.72;;;4.40;;
8058;SDS011;4072;42.668;23.396;2022-07-22T10:45:51;6.97;;;4.30;;
8058;SDS011;4072;42.668;23.396;2022-07-22T10:48:43;6.38;;;4.22;;
8058;SDS011;4072;42.668;23.396;2022-07-22T10:51:12;8.65;;;4.40;;
8058;SDS011;4072;42.668;23.396;2022-07-22T10:53:42;8.65;;;4.60;;
8058;SDS011;4072;42.668;23.396;2022-07-22T10:56:26;7.32;;;4.18;;
8058;SDS011;4072;42.668;23.396;2022-07-22T10:58:58;14.02;;;5.05;;
8058;SDS011;4072;42.668;23.396;2022-07-22T11:01:27;7.03;;;4.60;;
8058;SDS011;4072;42.668;23.396;2022-07-22T11:03:56;6.10;;;4.78;;
8058;SDS011;4072;42.668;23.396;2022-07-22T11:06:42;4.88;;;4.47;;
8058;SDS011;4072;42.668;23.396;2022-07-22T11:09:12;7.25;;;4.20;;
8058;SDS011;4072;42.668;23.396;2022-07-22T11:11:42;5.90;;;4.78;;
8058;SDS011;4072;42.668;23.396;2022-07-22T11:14:12;6.15;;;4.50;;
8058;SDS011;4072;42.668;23.396;2022-07-22T11:16:40;5.70;;;4.10;;
8058;SDS011;4072;42.668;23.396;2022-07-22T11:19:09;5.38;;;4.70;;
8058;SDS011;4072;42.668;23.396;2022-07-22T11:21:37;5.63;;;4.68;;
8058;SDS011;4072;42.668;23.396;2022-07-22T11:24:11;4.97;;;4.47;;
8058;SDS011;4072;42.668;23.396;2022-07-22T11:26:40;5.00;;;4.30;;
8058;SDS011;4072;42.668;23.396;2022-07-22T11:29:10;6.15;;;4.28;;
8058;SDS011;4072;42.668;23.396;2022-07-22T11:31:42;4.82;;;4.30;;
8058;SDS011;4072;42.668;23.396;2022-07-22T11:34:11;6.13;;;4.20;;
8058;SDS011;4072;42.668;23.396;2022-07-22T11:36:40;7.22;;;4.32;;
8058;SDS011;4072;42.668;23.396;2022-07-22T11:39:09;5.32;;;4.78;;
8058;SDS011;4072;42.668;23.396;2022-07-22T11:41:37;6.43;;;4.32;;
8058;SDS011;4072;42.668;23.396;2022-07-22T11:44:05;5.72;;;4.30;;
8058;SDS011;4072;42.668;23.396;2022-07-22T11:46:38;5.20;;;4.40;;
8058;SDS011;4072;42.668;23.396;2022-07-22T11:49:08;7.25;;;4.18;;
8058;SDS011;4072;42.668;23.396;2022-07-22T11:51:37;7.20;;;4.53;;
8058;SDS011;4072;42.668;23.396;2022-07-22T11:54:05;7.40;;;4.70;;
8058;SDS011;4072;42.668;23.396;2022-07-22T11:56:33;6.25;;;4.47;;
8058;SDS011;4072;42.668;23.396;2022-07-22T11:59:02;6.18;;;4.35;;
8058;SDS011;4072;42.668;23.396;2022-07-22T12:01:33;6.55;;;4.75;;
8058;SDS011;4072;42.668;23.396;2022-07-22T12:04:03;5.43;;;4.60;;
8058;SDS011;4072;42.668;23.396;2022-07-22T12:06:31;5.32;;;4.88;;
8058;SDS011;4072;42.668;23.396;2022-07-22T12:09:04;5.97;;;4.18;;
8058;SDS011;4072;42.668;23.396;2022-07-22T12:11:34;5.20;;;4.28;;
8058;SDS011;4072;42.668;23.396;2022-07-22T12:14:06;8.90;;;4.63;;
8058;SDS011;4072;42.668;23.396;2022-07-22T12:16:41;5.47;;;3.85;;
8058;SDS011;4072;42.668;23.396;2022-07-22T12:19:12;5.15;;;4.38;;
8058;SDS011;4072;42.668;23.396;2022-07-22T12:21:52;4.25;;;3.80;;
8058;SDS011;4072;42.668;23.396;2022-07-22T12:24:27;7.68;;;4.38;;
8058;SDS011;4072;42.668;23.396;2022-07-22T12:26:56;6.10;;;4.43;;
8058;SDS011;4072;42.668;23.396;2022-07-22T12:29:25;7.68;;;4.43;;
8058;SDS011;4072;42.668;23.396;2022-07-22T12:31:53;7.05;;;4.45;;
8058;SDS011;4072;42.668;23.396;2022-07-22T12:34:34;5.93;;;3.92;;
8058;SDS011;4072;42.668;23.396;2022-07-22T12:37:11;8.30;;;3.92;;
8058;SDS011;4072;42.668;23.396;2022-07-22T12:39:40;7.15;;;4.00;;
8058;SDS011;4072;42.668;23.396;2022-07-22T12:42:19;3.78;;;3.40;;
8058;SDS011;4072;42.668;23.396;2022-07-22T12:44:51;5.57;;;3.70;;
8058;SDS011;4072;42.668;23.396;2022-07-22T12:50:30;4.15;;;3.60;;
8058;SDS011;4072;42.668;23.396;2022-07-22T12:52:59;5.68;;;3.65;;
8058;SDS011;4072;42.668;23.396;2022-07-22T12:55:46;3.80;;;3.38;;
8058;SDS011;4072;42.668;23.396;2022-07-22T12:58:14;4.43;;;3.47;;
8058;SDS011;4072;42.668;23.396;2022-07-22T13:00:45;4.22;;;3.67;;
8058;SDS011;4072;42.668;23.396;2022-07-22T13:03:14;4.47;;;3.95;;
8058;SDS011;4072;42.668;23.396;2022-07-22T13:05:44;3.92;;;3.63;;
8058;SDS011;4072;42.668;23.396;2022-07-22T13:08:12;4.78;;;3.60;;
8058;SDS011;4072;42.668;23.396;2022-07-22T13:10:39;6.28;;;3.40;;
8058;SDS011;4072;42.668;23.396;2022-07-22T13:13:07;5.95;;;3.42;;
8058;SDS011;4072;42.668;23.396;2022-07-22T13:15:35;5.95;;;4.30;;
8058;SDS011;4072;42.668;23.396;2022-07-22T13:18:04;6.05;;;3.55;;
8058;SDS011;4072;42.668;23.396;2022-07-22T13:20:32;5.82;;;3.50;;
8058;SDS011;4072;42.668;23.396;2022-07-22T13:23:02;9.15;;;3.80;;
8058;SDS011;4072;42.668;23.396;2022-07-22T13:25:30;5.32;;;3.80;;
8058;SDS011;4072;42.668;23.396;2022-07-22T13:27:59;7.45;;;3.80;;
8058;SDS011;4072;42.668;23.396;2022-07-22T13:30:27;5.32;;;3.50;;
8058;SDS011;4072;42.668;23.396;2022-07-22T13:32:55;4.85;;;3.45;;
8058;SDS011;4072;42.668;23.396;2022-07-22T13:35:23;4.20;;;3.40;;
8058;SDS011;4072;42.668;23.396;2022-07-22T13:37:51;6.43;;;3.78;;
8058;SDS011;4072;42.668;23.396;2022-07-22T13:40:20;5.85;;;3.80;;
8058;SDS011;4072;42.668;23.396;2022-07-22T13:42:49;8.10;;;4.10;;
8058;SDS011;4072;42.668;23.396;2022-07-22T13:45:17;9.07;;;4.15;;
8058;SDS011;4072;42.668;23.396;2022-07-22T13:47:45;7.20;;;3.53;;
8058;SDS011;4072;42.668;23.396;2022-07-22T13:50:13;4.35;;;3.47;;
8058;SDS011;4072;42.668;23.396;2022-07-22T13:52:41;5.05;;;3.20;;
8058;SDS011;4072;42.668;23.396;2022-07-22T13:55:12;3.92;;;3.53;;
8058;SDS011;4072;42.668;23.396;2022-07-22T13:57:42;4.65;;;2.90;;
8058;SDS011;4072;42.668;23.396;2022-07-22T14:00:10;3.92;;;3.58;;
8058;SDS011;4072;42.668;23.396;2022-07-22T14:02:41;6.63;;;3.53;;
8058;SDS011;4072;42.668;23.396;2022-07-22T14:05:12;5.55;;;3.53;;
8058;SDS011;4072;42.668;23.396;2022-07-22T14:07:42;7.07;;;3.00;;
8058;SDS011;4072;42.668;23.396;2022-07-22T14:10:09;6.20;;;3.35;;
8058;SDS011;4072;42.668;23.396;2022-07-22T14:12:38;3.92;;;3.53;;
8058;SDS011;4072;42.668;23.396;2022-07-22T14:15:09;4.22;;;3.80;;
8058;SDS011;4072;42.668;23.396;2022-07-22T14:17:39;4.65;;;3.42;;
8058;SDS011;4072;42.668;23.396;2022-07-22T14:20:11;4.43;;;4.03;;
8058;SDS011;4072;42.668;23.396;2022-07-22T14:22:39;6.40;;;3.83;;
8058;SDS011;4072;42.668;23.396;2022-07-22T14:25:08;3.65;;;3.35;;
8058;SDS011;4072;42.668;23.396;2022-07-22T14:27:35;4.55;;;3.80;;
8058;SDS011;4072;42.668;23.396;2022-07-22T14:30:04;4.00;;;3.47;;
8058;SDS011;4072;42.668;23.396;2022-07-22T14:32:34;6.35;;;3.67;;
8058;SDS011;4072;42.668;23.396;2022-07-22T14:35:02;6.63;;;3.65;;
8058;SDS011;4072;42.668;23.396;2022-07-22T14:37:59;5.22;;;3.90;;
8058;SDS011;4072;42.668;23.396;2022-07-22T14:40:28;5.60;;;3.88;;
8058;SDS011;4072;42.668;23.396;2022-07-22T14:42:57;2.67;;;2.47;;
8058;SDS011;4072;42.668;23.396;2022-07-22T14:45:45;5.78;;;3.83;;
8058;SDS011;4072;42.668;23.396;2022-07-22T14:48:14;3.60;;;3.30;;
8058;SDS011;4072;42.668;23.396;2022-07-22T14:50:42;5.88;;;3.58;;
8058;SDS011;4072;42.668;23.396;2022-07-22T14:53:11;4.97;;;3.13;;
8058;SDS011;4072;42.668;23.396;2022-07-22T14:55:39;4.13;;;3.75;;
8058;SDS011;4072;42.668;23.396;2022-07-22T14:58:07;4.72;;;3.28;;
8058;SDS011;4072;42.668;23.396;2022-07-22T15:00:35;4.45;;;3.38;;
8058;SDS011;4072;42.668;23.396;2022-07-22T15:03:03;4.32;;;3.40;;
8058;SDS011;4072;42.668;23.396;2022-07-22T15:05:33;6.20;;;3.67;;
8058;SDS011;4072;42.668;23.396;2022-07-22T15:08:01;4.20;;;3.80;;
8058;SDS011;4072;42.668;23.396;2022-07-22T15:10:29;6.40;;;3.67;;
8058;SDS011;4072;42.668;23.396;2022-07-22T15:12:57;5.15;;;3.83;;
8058;SDS011;4072;42.668;23.396;2022-07-22T15:15:25;4.60;;;3.03;;